Time;durP1;ratioP1;P1;durP2;ratioP2;P2;SDS_P1;SDS_P2;PMS_P1;PMS_P2;Temp;Humidity;BMP_temperature;BMP_pressure;BME280_temperature;BME280_humidity;BME280_pressure;Samples;Min_cycle;Max_cycle;Signal;HPM_P1;HPM_P2
2021/07/07 00:01:00;;;;;;;9.93;5.53;;;;;;;;;;5010587;28;20556;-67
2021/07/07 00:03:27;;;;;;;8.50;4.82;;;;;;;;;;4994808;28;20107;-67
2021/07/07 00:05:55;;;;;;;11.15;5.15;;;;;;;;;;5007864;28;20433;-68
2021/07/07 00:08:22;;;;;;;22.13;6.18;;;;;;;;;;5009698;28;20077;-68
2021/07/07 00:10:49;;;;;;;13.32;5.63;;;;;;;;;;4993685;28;20041;-70
2021/07/07 00:13:16;;;;;;;15.63;6.85;;;;;;;;;;5007787;28;20018;-70
2021/07/07 00:15:44;;;;;;;15.27;7.80;;;;;;;;;;5005476;28;20439;-68
2021/07/07 00:18:11;;;;;;;10.02;5.78;;;;;;;;;;5010578;28;20104;-68
2021/07/07 00:20:44;;;;;;;8.73;5.13;;;;;;;;;;5012713;28;20483;-67
2021/07/07 00:23:12;;;;;;;18.33;5.88;;;;;;;;;;4993193;28;20133;-68
2021/07/07 00:25:40;;;;;;;10.05;5.13;;;;;;;;;;5012433;28;20026;-68
2021/07/07 00:28:07;;;;;;;9.02;5.43;;;;;;;;;;5009149;28;20030;-68
2021/07/07 00:30:34;;;;;;;10.45;5.43;;;;;;;;;;4994442;28;20022;-68
2021/07/07 00:33:01;;;;;;;8.43;5.03;;;;;;;;;;5008000;28;20025;-67
2021/07/07 00:35:29;;;;;;;9.82;5.88;;;;;;;;;;5008158;28;20101;-68
2021/07/07 00:37:56;;;;;;;8.55;4.20;;;;;;;;;;5008419;28;20030;-68
2021/07/07 00:40:24;;;;;;;5.82;3.85;;;;;;;;;;5009886;28;20034;-68
2021/07/07 00:42:54;;;;;;;7.35;3.72;;;;;;;;;;5010461;28;20030;-68
2021/07/07 00:45:21;;;;;;;12.60;4.85;;;;;;;;;;4991364;28;20156;-67
2021/07/07 00:47:48;;;;;;;10.32;4.63;;;;;;;;;;5008789;28;20125;-66
2021/07/07 00:50:17;;;;;;;8.82;5.03;;;;;;;;;;5010534;28;20096;-67
2021/07/07 00:52:44;;;;;;;16.40;5.40;;;;;;;;;;5009732;28;20026;-66
2021/07/07 00:55:13;;;;;;;16.05;6.05;;;;;;;;;;5009453;28;20410;-67
2021/07/07 00:57:50;;;;;;;20.73;5.97;;;;;;;;;;5010516;28;20056;-66
2021/07/07 01:00:22;;;;;;;11.27;4.82;;;;;;;;;;5009390;28;21777;-66
2021/07/07 01:02:50;;;;;;;8.15;5.10;;;;;;;;;;5005435;28;20030;-67
2021/07/07 01:05:17;;;;;;;8.90;5.30;;;;;;;;;;5007541;28;20041;-67
2021/07/07 01:07:45;;;;;;;10.80;5.55;;;;;;;;;;5007447;28;20033;-67
2021/07/07 01:10:13;;;;;;;8.95;5.22;;;;;;;;;;5011969;28;20126;-67
2021/07/07 01:12:40;;;;;;;10.05;5.38;;;;;;;;;;5008142;28;20382;-67
2021/07/07 01:15:09;;;;;;;11.15;5.90;;;;;;;;;;5010207;28;20032;-67
2021/07/07 01:17:39;;;;;;;12.40;5.75;;;;;;;;;;5008147;28;20023;-67
2021/07/07 01:20:08;;;;;;;12.40;6.88;;;;;;;;;;5007626;28;20099;-67
2021/07/07 01:22:35;;;;;;;11.75;5.72;;;;;;;;;;4992929;28;20056;-67
2021/07/07 01:25:02;;;;;;;8.38;5.18;;;;;;;;;;5009971;28;20497;-66
2021/07/07 01:27:30;;;;;;;13.13;5.70;;;;;;;;;;5009059;28;20513;-66
2021/07/07 01:29:57;;;;;;;12.05;5.35;;;;;;;;;;5007082;28;20056;-66
2021/07/07 01:32:24;;;;;;;14.98;6.20;;;;;;;;;;5005896;28;20018;-66
2021/07/07 01:34:52;;;;;;;21.48;6.50;;;;;;;;;;5011067;28;20382;-66
2021/07/07 01:37:19;;;;;;;11.57;6.28;;;;;;;;;;5008790;28;20093;-67
2021/07/07 01:39:46;;;;;;;12.52;5.55;;;;;;;;;;5007712;28;20037;-66
2021/07/07 01:42:13;;;;;;;15.68;7.60;;;;;;;;;;5010552;28;20145;-66
2021/07/07 01:44:40;;;;;;;7.32;4.82;;;;;;;;;;5011164;28;20091;-67
2021/07/07 01:47:08;;;;;;;9.90;5.22;;;;;;;;;;5005898;28;20026;-67
2021/07/07 01:49:35;;;;;;;11.20;6.05;;;;;;;;;;4989797;28;20037;-67
2021/07/07 01:52:02;;;;;;;11.05;5.25;;;;;;;;;;4991759;28;20025;-67
2021/07/07 01:54:29;;;;;;;10.65;5.10;;;;;;;;;;5007685;28;20484;-67
2021/07/07 01:56:57;;;;;;;15.25;4.93;;;;;;;;;;4994176;28;20124;-67
2021/07/07 01:59:24;;;;;;;9.55;4.40;;;;;;;;;;5009525;28;20026;-67
2021/07/07 02:01:51;;;;;;;10.77;5.22;;;;;;;;;;5010250;28;20034;-67
2021/07/07 02:04:21;;;;;;;14.98;4.88;;;;;;;;;;5008866;28;20049;-67
2021/07/07 02:06:49;;;;;;;8.75;3.67;;;;;;;;;;5009714;28;20029;-68
2021/07/07 02:09:19;;;;;;;11.40;3.83;;;;;;;;;;5010514;28;20092;-67
2021/07/07 02:11:49;;;;;;;8.60;3.85;;;;;;;;;;5011793;28;20421;-67
2021/07/07 02:14:17;;;;;;;9.68;3.25;;;;;;;;;;5008030;28;20080;-68
2021/07/07 02:16:44;;;;;;;10.18;3.15;;;;;;;;;;5009515;28;20036;-68
2021/07/07 02:19:12;;;;;;;6.70;1.98;;;;;;;;;;5007849;28;20026;-68
2021/07/07 02:21:39;;;;;;;8.35;2.03;;;;;;;;;;4993407;28;20041;-68
2021/07/07 02:24:06;;;;;;;5.68;2.15;;;;;;;;;;5007366;28;20540;-68
2021/07/07 02:26:33;;;;;;;3.95;1.67;;;;;;;;;;5014826;28;20125;-68
2021/07/07 02:29:01;;;;;;;6.00;1.55;;;;;;;;;;5013405;28;20025;-68
2021/07/07 02:31:28;;;;;;;4.35;1.60;;;;;;;;;;5015653;28;20110;-69
2021/07/07 02:33:55;;;;;;;5.88;1.33;;;;;;;;;;5012552;28;20062;-66
2021/07/07 02:36:22;;;;;;;3.47;1.10;;;;;;;;;;5014202;28;20033;-68
2021/07/07 02:38:49;;;;;;;2.13;0.85;;;;;;;;;;5013354;28;20033;-66
2021/07/07 02:41:16;;;;;;;2.55;0.80;;;;;;;;;;5013491;28;20026;-67
2021/07/07 02:43:43;;;;;;;2.00;0.90;;;;;;;;;;5008354;28;20022;-67
2021/07/07 02:46:11;;;;;;;3.20;0.77;;;;;;;;;;5014885;28;20026;-67
2021/07/07 02:48:38;;;;;;;1.27;0.80;;;;;;;;;;5013468;28;20037;-67
2021/07/07 02:51:08;;;;;;;4.38;1.20;;;;;;;;;;5014477;28;20026;-67
2021/07/07 02:53:35;;;;;;;5.43;1.13;;;;;;;;;;5013864;28;20435;-67
2021/07/07 02:56:03;;;;;;;2.63;0.90;;;;;;;;;;5015817;28;20461;-66
2021/07/07 02:58:30;;;;;;;6.78;2.45;;;;;;;;;;5014116;28;20034;-66
2021/07/07 03:00:57;;;;;;;2.65;0.85;;;;;;;;;;5012798;28;20030;-66
2021/07/07 03:03:25;;;;;;;2.65;1.00;;;;;;;;;;5012666;28;20153;-67
2021/07/07 03:05:54;;;;;;;5.22;0.93;;;;;;;;;;5016482;28;20053;-67
2021/07/07 03:08:21;;;;;;;2.38;0.70;;;;;;;;;;5016613;28;20130;-67
2021/07/07 03:10:49;;;;;;;3.22;1.40;;;;;;;;;;5000663;28;20059;-67
2021/07/07 03:13:17;;;;;;;2.13;0.77;;;;;;;;;;5016165;28;20108;-67
2021/07/07 03:15:44;;;;;;;2.13;1.00;;;;;;;;;;5000361;28;20030;-67
2021/07/07 03:18:12;;;;;;;2.00;0.70;;;;;;;;;;5015125;28;20088;-67
2021/07/07 03:20:40;;;;;;;2.45;0.52;;;;;;;;;;5017581;28;20521;-67
2021/07/07 03:23:10;;;;;;;5.68;0.77;;;;;;;;;;5014476;28;20026;-67
2021/07/07 03:25:37;;;;;;;1.92;0.98;;;;;;;;;;5014426;28;20022;-67
2021/07/07 03:28:05;;;;;;;2.25;0.60;;;;;;;;;;5012004;28;20469;-67
2021/07/07 03:30:33;;;;;;;2.50;0.73;;;;;;;;;;5013911;28;20034;-67
2021/07/07 03:33:01;;;;;;;2.97;0.60;;;;;;;;;;4994108;28;20041;-67
2021/07/07 03:35:28;;;;;;;2.58;0.82;;;;;;;;;;4995824;28;20065;-67
2021/07/07 03:37:57;;;;;;;4.47;1.23;;;;;;;;;;5003772;28;20018;-68
2021/07/07 03:40:25;;;;;;;1.90;0.68;;;;;;;;;;4996298;28;20498;-68
2021/07/07 03:42:52;;;;;;;7.55;1.33;;;;;;;;;;5008934;28;20552;-67
2021/07/07 03:45:20;;;;;;;2.92;0.98;;;;;;;;;;5012758;28;20479;-67
2021/07/07 03:47:47;;;;;;;3.25;0.82;;;;;;;;;;5011882;28;20144;-67
2021/07/07 03:50:15;;;;;;;2.63;0.98;;;;;;;;;;5002804;28;20030;-67
2021/07/07 03:52:42;;;;;;;4.50;1.10;;;;;;;;;;5012357;28;20018;-67
2021/07/07 03:55:13;;;;;;;3.58;1.10;;;;;;;;;;5008627;28;20026;-67
2021/07/07 03:57:40;;;;;;;4.55;1.27;;;;;;;;;;5011479;28;20104;-67
2021/07/07 04:00:09;;;;;;;3.45;1.35;;;;;;;;;;5013803;28;20030;-67
2021/07/07 04:02:36;;;;;;;2.38;0.77;;;;;;;;;;5011776;28;20491;-67
2021/07/07 04:05:04;;;;;;;1.65;0.60;;;;;;;;;;4995829;28;20061;-67
2021/07/07 04:07:31;;;;;;;2.92;0.60;;;;;;;;;;5011674;28;20022;-67
2021/07/07 04:09:58;;;;;;;4.00;0.60;;;;;;;;;;5007586;28;20041;-67
2021/07/07 04:12:25;;;;;;;4.18;0.60;;;;;;;;;;5008563;28;20049;-67
2021/07/07 04:14:52;;;;;;;2.25;0.80;;;;;;;;;;5012086;28;20088;-67
2021/07/07 04:17:19;;;;;;;4.05;0.70;;;;;;;;;;5007941;28;20408;-67
2021/07/07 04:19:46;;;;;;;3.67;1.02;;;;;;;;;;5010854;28;20030;-67
2021/07/07 04:22:13;;;;;;;2.38;1.05;;;;;;;;;;5008038;28;20038;-67
2021/07/07 04:24:41;;;;;;;2.20;0.70;;;;;;;;;;5007961;28;20539;-67
2021/07/07 04:27:08;;;;;;;3.45;0.98;;;;;;;;;;4992135;28;20045;-67
2021/07/07 04:29:35;;;;;;;2.75;0.98;;;;;;;;;;5008747;28;20018;-68
2021/07/07 04:32:02;;;;;;;3.40;0.82;;;;;;;;;;4999290;28;20026;-67
2021/07/07 04:34:29;;;;;;;2.83;0.82;;;;;;;;;;4991049;28;20030;-67
2021/07/07 04:36:56;;;;;;;1.85;0.68;;;;;;;;;;4992028;28;20383;-68
2021/07/07 04:39:24;;;;;;;2.13;0.50;;;;;;;;;;5007029;28;20021;-68
2021/07/07 04:41:51;;;;;;;3.83;0.68;;;;;;;;;;5008163;28;20438;-68
2021/07/07 04:44:21;;;;;;;1.92;0.60;;;;;;;;;;5002234;28;20046;-68
2021/07/07 04:46:48;;;;;;;1.90;0.60;;;;;;;;;;4999417;28;20034;-68
2021/07/07 04:49:15;;;;;;;2.22;0.60;;;;;;;;;;5008332;28;20022;-68
2021/07/07 04:51:42;;;;;;;2.72;1.02;;;;;;;;;;5009106;28;20061;-68
2021/07/07 04:54:09;;;;;;;3.13;0.50;;;;;;;;;;5007557;28;20025;-67
2021/07/07 04:56:37;;;;;;;2.83;0.57;;;;;;;;;;4993341;28;20022;-68
2021/07/07 04:59:04;;;;;;;3.63;0.85;;;;;;;;;;5007747;28;20399;-67
2021/07/07 05:01:31;;;;;;;3.53;0.80;;;;;;;;;;5010776;28;20034;-68
2021/07/07 05:03:58;;;;;;;4.60;1.17;;;;;;;;;;5007834;28;20080;-68
2021/07/07 05:06:25;;;;;;;2.45;0.63;;;;;;;;;;4988813;28;20026;-67
2021/07/07 05:08:53;;;;;;;1.02;0.50;;;;;;;;;;5008199;28;20085;-67
2021/07/07 05:11:21;;;;;;;2.10;0.50;;;;;;;;;;5010683;28;20447;-67
2021/07/07 05:13:48;;;;;;;3.45;0.60;;;;;;;;;;5007729;28;20029;-67
2021/07/07 05:16:16;;;;;;;3.50;0.60;;;;;;;;;;5012162;28;20106;-67
2021/07/07 05:18:43;;;;;;;0.80;0.50;;;;;;;;;;5008263;28;20027;-67
2021/07/07 05:21:12;;;;;;;2.72;0.40;;;;;;;;;;5006177;28;20041;-67
2021/07/07 05:23:39;;;;;;;1.48;0.55;;;;;;;;;;4992326;28;20065;-67
2021/07/07 05:26:06;;;;;;;3.40;0.45;;;;;;;;;;4991675;28;20116;-67
2021/07/07 05:28:33;;;;;;;1.23;0.60;;;;;;;;;;5009403;28;20108;-67
2021/07/07 05:31:07;;;;;;;0.85;0.65;;;;;;;;;;5009717;28;20053;-67
2021/07/07 05:33:34;;;;;;;;;;;;;;;;;;5010642;28;20028;-68
2021/07/07 05:36:09;;;;;;;3.05;0.60;;;;;;;;;;5011079;28;20840;-68
2021/07/07 05:38:37;;;;;;;4.78;0.98;;;;;;;;;;5006373;28;20018;-68
2021/07/07 05:41:05;;;;;;;0.90;0.50;;;;;;;;;;4993508;28;20534;-68
2021/07/07 05:43:32;;;;;;;3.03;0.52;;;;;;;;;;5007376;28;20029;-68
2021/07/07 05:45:59;;;;;;;1.38;0.60;;;;;;;;;;5010734;28;20079;-68
2021/07/07 05:48:27;;;;;;;3.28;0.80;;;;;;;;;;5009905;28;20386;-68
2021/07/07 05:50:54;;;;;;;3.17;0.60;;;;;;;;;;5010788;28;20104;-68
2021/07/07 05:53:25;;;;;;;2.00;0.55;;;;;;;;;;5010284;28;20022;-68
2021/07/07 05:55:52;;;;;;;1.23;0.50;;;;;;;;;;5011881;28;20026;-68
2021/07/07 05:58:20;;;;;;;1.02;0.70;;;;;;;;;;5010827;28;20604;-68
2021/07/07 06:00:47;;;;;;;1.75;1.27;;;;;;;;;;5012677;28;20445;-69
2021/07/07 06:03:14;;;;;;;3.35;1.15;;;;;;;;;;5012605;28;20030;-68
2021/07/07 06:05:41;;;;;;;2.80;0.70;;;;;;;;;;5013538;28;20042;-68
2021/07/07 06:08:08;;;;;;;2.25;0.60;;;;;;;;;;5012424;28;20056;-68
2021/07/07 06:10:36;;;;;;;2.65;0.60;;;;;;;;;;5013399;28;20050;-68
2021/07/07 06:13:03;;;;;;;2.65;0.77;;;;;;;;;;5013057;28;20018;-67
2021/07/07 06:15:33;;;;;;;3.08;1.02;;;;;;;;;;5013153;28;20018;-68
2021/07/07 06:18:00;;;;;;;9.63;7.65;;;;;;;;;;5010598;28;20655;-68
2021/07/07 06:20:28;;;;;;;4.47;3.70;;;;;;;;;;4995894;28;20029;-68
2021/07/07 06:22:55;;;;;;;6.05;4.93;;;;;;;;;;5013302;28;20030;-67
2021/07/07 06:25:22;;;;;;;6.05;4.40;;;;;;;;;;5012989;28;20425;-68
2021/07/07 06:27:49;;;;;;;5.25;2.50;;;;;;;;;;5013289;28;20026;-68
2021/07/07 06:30:18;;;;;;;5.00;1.98;;;;;;;;;;5013003;28;20026;-67
2021/07/07 06:32:47;;;;;;;6.75;4.85;;;;;;;;;;5010538;28;20053;-68
2021/07/07 06:35:14;;;;;;;3.28;1.48;;;;;;;;;;5012008;28;20022;-68
2021/07/07 06:37:41;;;;;;;4.80;1.23;;;;;;;;;;5008380;28;20021;-68
2021/07/07 06:40:09;;;;;;;4.60;1.02;;;;;;;;;;5007680;28;20029;-68
2021/07/07 06:42:36;;;;;;;3.15;0.57;;;;;;;;;;5011262;28;20136;-68
2021/07/07 06:45:05;;;;;;;3.60;0.63;;;;;;;;;;5013745;28;20030;-68
2021/07/07 06:47:32;;;;;;;4.43;1.02;;;;;;;;;;5009892;28;20021;-68
2021/07/07 06:50:00;;;;;;;2.88;0.85;;;;;;;;;;5005194;28;20034;-68
2021/07/07 06:52:27;;;;;;;2.25;0.82;;;;;;;;;;5001703;28;20064;-68
2021/07/07 06:54:54;;;;;;;3.60;0.65;;;;;;;;;;4985941;28;20038;-67
2021/07/07 06:57:21;;;;;;;3.40;0.60;;;;;;;;;;5009445;28;20503;-67
2021/07/07 06:59:49;;;;;;;2.90;0.85;;;;;;;;;;5011925;28;20084;-67
2021/07/07 07:02:16;;;;;;;4.28;1.20;;;;;;;;;;5011302;28;20037;-68
2021/07/07 07:04:43;;;;;;;3.55;0.88;;;;;;;;;;5008684;28;20037;-67
2021/07/07 07:07:10;;;;;;;3.80;1.10;;;;;;;;;;5009982;28;20029;-67
2021/07/07 07:09:37;;;;;;;3.05;0.70;;;;;;;;;;5011836;28;20073;-67
2021/07/07 07:12:04;;;;;;;2.35;0.80;;;;;;;;;;5010931;28;20091;-68
2021/07/07 07:14:31;;;;;;;3.47;0.95;;;;;;;;;;5011781;28;20026;-67
2021/07/07 07:16:59;;;;;;;5.75;0.98;;;;;;;;;;5011150;28;20033;-68
2021/07/07 07:19:26;;;;;;;3.60;0.95;;;;;;;;;;4993740;28;20030;-67
2021/07/07 07:21:53;;;;;;;4.53;1.30;;;;;;;;;;5013107;28;20398;-68
2021/07/07 07:24:20;;;;;;;3.35;1.00;;;;;;;;;;5010372;28;20033;-68
2021/07/07 07:26:47;;;;;;;4.15;1.10;;;;;;;;;;4994703;28;20402;-67
2021/07/07 07:29:14;;;;;;;6.88;1.42;;;;;;;;;;5008534;28;20101;-68
2021/07/07 07:31:41;;;;;;;3.50;1.05;;;;;;;;;;5003061;28;20088;-67
2021/07/07 07:34:08;;;;;;;6.63;1.83;;;;;;;;;;4999077;28;20037;-67
2021/07/07 07:36:36;;;;;;;4.82;1.60;;;;;;;;;;5004276;28;20040;-67
2021/07/07 07:39:09;;;;;;;2.58;1.20;;;;;;;;;;5003856;28;20021;-67
2021/07/07 07:41:39;;;;;;;6.17;1.53;;;;;;;;;;5003942;28;20038;-67
2021/07/07 07:44:10;;;;;;;6.43;1.77;;;;;;;;;;5002162;28;20060;-68
2021/07/07 07:46:38;;;;;;;4.97;1.90;;;;;;;;;;5003378;28;20060;-67
2021/07/07 07:49:06;;;;;;;6.20;1.65;;;;;;;;;;5003602;28;20056;-69
2021/07/07 07:51:34;;;;;;;4.10;1.60;;;;;;;;;;5009687;28;20060;-70
2021/07/07 07:54:01;;;;;;;6.10;1.80;;;;;;;;;;5017071;28;20541;-71
2021/07/07 07:56:28;;;;;;;5.20;2.13;;;;;;;;;;5023376;28;20024;-70
2021/07/07 07:58:55;;;;;;;7.05;2.80;;;;;;;;;;5020567;28;20021;-70
2021/07/07 08:01:24;;;;;;;8.18;4.35;;;;;;;;;;5031503;28;20036;-70
2021/07/07 08:03:51;;;;;;;8.00;4.15;;;;;;;;;;5011520;28;20491;-70
2021/07/07 08:06:19;;;;;;;11.23;4.18;;;;;;;;;;5024695;28;20112;-70
2021/07/07 08:08:46;;;;;;;13.07;6.75;;;;;;;;;;5021177;28;20049;-70
2021/07/07 08:11:13;;;;;;;11.95;7.57;;;;;;;;;;5023858;28;20048;-69
2021/07/07 08:13:41;;;;;;;8.63;5.40;;;;;;;;;;5025870;28;20026;-70
2021/07/07 08:16:08;;;;;;;11.55;6.40;;;;;;;;;;5022051;28;20025;-69
2021/07/07 08:18:35;;;;;;;9.55;5.22;;;;;;;;;;5022333;28;20111;-68
2021/07/07 08:21:02;;;;;;;8.18;4.50;;;;;;;;;;5026165;28;20044;-69
2021/07/07 08:23:29;;;;;;;13.93;4.40;;;;;;;;;;5020374;28;20018;-69
2021/07/07 08:25:56;;;;;;;3.92;2.63;;;;;;;;;;5027351;28;20040;-69
2021/07/07 08:28:24;;;;;;;11.70;3.45;;;;;;;;;;5022058;28;20028;-69
2021/07/07 08:30:51;;;;;;;7.07;3.03;;;;;;;;;;5022077;28;20033;-69
2021/07/07 08:33:18;;;;;;;9.73;2.58;;;;;;;;;;5031243;28;20032;-70
2021/07/07 08:35:45;;;;;;;7.00;2.70;;;;;;;;;;5021584;28;20034;-69
2021/07/07 08:38:13;;;;;;;14.80;2.78;;;;;;;;;;5030230;28;20028;-69
2021/07/07 08:40:40;;;;;;;7.72;2.70;;;;;;;;;;5013798;28;20038;-69
2021/07/07 08:43:09;;;;;;;9.05;3.38;;;;;;;;;;5030303;28;20132;-70
2021/07/07 08:45:36;;;;;;;9.05;3.47;;;;;;;;;;5025616;28;20013;-69
2021/07/07 08:48:04;;;;;;;4.18;2.50;;;;;;;;;;5029997;28;20501;-68
2021/07/07 08:50:32;;;;;;;10.15;4.65;;;;;;;;;;5025316;28;20031;-68
2021/07/07 08:53:01;;;;;;;7.93;4.38;;;;;;;;;;5028738;28;20030;-68
2021/07/07 08:55:29;;;;;;;7.97;4.15;;;;;;;;;;5002286;28;20026;-68
2021/07/07 08:57:57;;;;;;;12.80;5.25;;;;;;;;;;5030263;28;20021;-68
2021/07/07 09:00:24;;;;;;;9.05;4.05;;;;;;;;;;5030731;28;20024;-68
2021/07/07 09:02:58;;;;;;;8.63;3.85;;;;;;;;;;5019415;28;20032;-68
2021/07/07 09:05:25;;;;;;;;;;;;;;;;;;5026846;28;20554;-68
2021/07/07 09:07:52;;;;;;;13.63;3.75;;;;;;;;;;5028380;28;19909;-68
2021/07/07 09:10:29;;;;;;;8.40;3.50;;;;;;;;;;5022942;28;20087;-68
2021/07/07 09:12:57;;;;;;;7.22;3.65;;;;;;;;;;5006808;28;20056;-67
2021/07/07 09:15:24;;;;;;;10.93;3.67;;;;;;;;;;5022237;28;20029;-68
2021/07/07 09:17:52;;;;;;;9.48;3.75;;;;;;;;;;5005226;28;20044;-68
2021/07/07 09:20:22;;;;;;;5.22;3.97;;;;;;;;;;5026836;28;20434;-67
2021/07/07 09:22:50;;;;;;;9.25;3.83;;;;;;;;;;5005181;28;20041;-68
2021/07/07 09:25:19;;;;;;;9.27;4.07;;;;;;;;;;5002727;28;20033;-67
2021/07/07 09:27:46;;;;;;;8.80;4.10;;;;;;;;;;5022426;28;21745;-68
2021/07/07 09:30:15;;;;;;;8.85;4.30;;;;;;;;;;5015739;28;20029;-68
2021/07/07 09:32:44;;;;;;;7.38;4.57;;;;;;;;;;5020170;28;20037;-68
2021/07/07 09:35:11;;;;;;;12.30;6.18;;;;;;;;;;5022486;28;20104;-68
2021/07/07 09:37:45;;;;;;;9.77;6.72;;;;;;;;;;5021726;28;20014;-68
2021/07/07 09:40:13;;;;;;;10.33;6.50;;;;;;;;;;5028083;28;20029;-68
2021/07/07 09:42:41;;;;;;;11.10;7.18;;;;;;;;;;5025076;28;20287;-68
2021/07/07 09:45:10;;;;;;;15.20;7.47;;;;;;;;;;5001957;28;20602;-69
2021/07/07 09:47:39;;;;;;;16.13;8.02;;;;;;;;;;5002804;28;20087;-68
2021/07/07 09:50:07;;;;;;;9.95;5.43;;;;;;;;;;5032025;28;20021;-68
2021/07/07 09:52:34;;;;;;;13.40;6.43;;;;;;;;;;5022587;28;20040;-67
2021/07/07 09:55:02;;;;;;;16.58;7.93;;;;;;;;;;5023804;28;20026;-68
2021/07/07 09:57:29;;;;;;;15.75;8.15;;;;;;;;;;5018691;28;20014;-68
2021/07/07 09:59:58;;;;;;;11.70;7.18;;;;;;;;;;5025328;28;20092;-68
2021/07/07 10:02:25;;;;;;;17.85;6.75;;;;;;;;;;5021213;28;20042;-68
2021/07/07 10:04:53;;;;;;;14.23;7.35;;;;;;;;;;5023367;28;20025;-68
2021/07/07 10:07:21;;;;;;;17.75;7.88;;;;;;;;;;5017350;28;20093;-68
2021/07/07 10:09:49;;;;;;;10.60;6.65;;;;;;;;;;5013300;28;20084;-67
2021/07/07 10:12:18;;;;;;;16.83;7.18;;;;;;;;;;4992128;28;20038;-68
2021/07/07 10:14:45;;;;;;;9.85;6.63;;;;;;;;;;5025816;28;20028;-67
2021/07/07 10:17:12;;;;;;;14.57;6.85;;;;;;;;;;5020576;28;20048;-68
2021/07/07 10:19:40;;;;;;;10.98;6.30;;;;;;;;;;5013296;28;20018;-68
2021/07/07 10:22:07;;;;;;;12.13;6.47;;;;;;;;;;5021117;28;20438;-67
2021/07/07 10:24:35;;;;;;;11.50;6.75;;;;;;;;;;5025485;28;20386;-68
2021/07/07 10:27:03;;;;;;;14.38;6.38;;;;;;;;;;5020084;28;20026;-66
2021/07/07 10:29:31;;;;;;;13.23;8.30;;;;;;;;;;5027790;28;20025;-67
2021/07/07 10:31:59;;;;;;;11.20;6.90;;;;;;;;;;5018211;28;20022;-67
2021/07/07 10:34:27;;;;;;;15.27;7.85;;;;;;;;;;5020914;28;20051;-67
2021/07/07 10:36:55;;;;;;;15.30;8.35;;;;;;;;;;5026006;28;20022;-66
2021/07/07 10:39:23;;;;;;;10.30;6.68;;;;;;;;;;5024173;28;20010;-67
2021/07/07 10:42:03;;;;;;;14.07;8.07;;;;;;;;;;5028631;28;20037;-69
2021/07/07 10:44:38;;;;;;;12.30;8.00;;;;;;;;;;5021058;28;20040;-68
2021/07/07 10:47:10;;;;;;;10.88;7.80;;;;;;;;;;5014374;28;20030;-68
2021/07/07 10:49:37;;;;;;;13.45;7.15;;;;;;;;;;5016278;28;20238;-69
2021/07/07 10:52:05;;;;;;;11.02;7.85;;;;;;;;;;5022177;28;20041;-68
2021/07/07 10:54:34;;;;;;;11.50;7.72;;;;;;;;;;5024694;28;20021;-69
2021/07/07 10:57:02;;;;;;;11.60;7.28;;;;;;;;;;5029055;28;20026;-68
2021/07/07 10:59:33;;;;;;;10.95;7.38;;;;;;;;;;5022268;28;20033;-69
2021/07/07 11:02:07;;;;;;;14.30;7.75;;;;;;;;;;5031194;28;20040;-69
2021/07/07 11:04:35;;;;;;;13.80;7.10;;;;;;;;;;5029392;28;20053;-68
2021/07/07 11:07:41;;;;;;;11.48;7.47;;;;;;;;;;5025612;28;20032;-68
2021/07/07 11:10:17;;;;;;;10.63;8.07;;;;;;;;;;4944231;28;20047;-68
2021/07/07 11:12:44;;;;;;;15.65;8.27;;;;;;;;;;4938987;29;20579;-68
2021/07/07 11:15:16;;;;;;;16.83;10.13;;;;;;;;;;4992462;28;20171;-67
2021/07/07 11:17:53;;;;;;;20.90;10.95;;;;;;;;;;5019509;28;20100;-67
2021/07/07 11:20:20;;;;;;;20.92;11.43;;;;;;;;;;5014081;28;20585;-68
2021/07/07 11:22:49;;;;;;;16.77;11.65;;;;;;;;;;5020763;28;20124;-68
2021/07/07 11:25:17;;;;;;;21.85;12.63;;;;;;;;;;5031908;28;20034;-67
2021/07/07 11:27:45;;;;;;;18.58;12.07;;;;;;;;;;5017179;28;20022;-67
2021/07/07 11:30:13;;;;;;;20.58;11.95;;;;;;;;;;5027289;28;20028;-68
2021/07/07 11:32:43;;;;;;;21.52;11.90;;;;;;;;;;5018201;28;22055;-69
2021/07/07 11:35:14;;;;;;;22.55;12.63;;;;;;;;;;5025620;28;20026;-68
2021/07/07 11:37:41;;;;;;;18.85;13.23;;;;;;;;;;5009065;28;20037;-68
2021/07/07 11:40:19;;;;;;;18.98;11.88;;;;;;;;;;5025494;28;20022;-68
2021/07/07 11:42:52;;;;;;;21.15;13.43;;;;;;;;;;5033127;28;20025;-68
2021/07/07 11:45:20;;;;;;;24.60;13.18;;;;;;;;;;5033422;28;20522;-68
2021/07/07 11:47:52;;;;;;;23.40;13.68;;;;;;;;;;5020191;28;20025;-67
2021/07/07 11:50:19;;;;;;;24.67;14.13;;;;;;;;;;5011439;28;20052;-67
2021/07/07 11:53:00;;;;;;;23.58;14.82;;;;;;;;;;5027381;28;20530;-68
2021/07/07 11:55:47;;;;;;;18.98;12.82;;;;;;;;;;5023047;28;20087;-68
2021/07/07 11:58:20;;;;;;;20.00;12.75;;;;;;;;;;4986611;28;20061;-68
2021/07/07 12:00:48;;;;;;;25.58;13.27;;;;;;;;;;5026389;28;20045;-68
2021/07/07 12:03:16;;;;;;;17.42;12.43;;;;;;;;;;5026356;28;20037;-68
2021/07/07 12:05:58;;;;;;;16.70;11.48;;;;;;;;;;5017576;28;20069;-67
2021/07/07 12:08:26;;;;;;;18.13;12.52;;;;;;;;;;5021201;28;20048;-67
2021/07/07 12:11:02;;;;;;;18.58;11.88;;;;;;;;;;5025550;28;20486;-67
2021/07/07 12:13:30;;;;;;;19.88;12.48;;;;;;;;;;5013011;28;20427;-67
2021/07/07 12:16:17;;;;;;;19.40;12.32;;;;;;;;;;5014753;28;20037;-67
2021/07/07 12:18:45;;;;;;;18.90;12.93;;;;;;;;;;5013885;28;20052;-67
2021/07/07 12:21:24;;;;;;;23.23;12.88;;;;;;;;;;5018928;28;20029;-67
2021/07/07 12:23:54;;;;;;;20.25;11.75;;;;;;;;;;5027443;28;20441;-67
2021/07/07 12:26:22;;;;;;;16.63;11.68;;;;;;;;;;5010117;28;20033;-67
2021/07/07 12:28:50;;;;;;;21.70;12.25;;;;;;;;;;5024513;28;20044;-67
2021/07/07 12:31:17;;;;;;;20.27;12.98;;;;;;;;;;5010416;28;20033;-67
2021/07/07 12:33:45;;;;;;;17.88;11.82;;;;;;;;;;5005036;28;20128;-66
2021/07/07 12:36:12;;;;;;;17.50;12.18;;;;;;;;;;5027598;28;20025;-67
2021/07/07 12:38:46;;;;;;;18.88;11.93;;;;;;;;;;5021992;28;20126;-67
2021/07/07 12:41:14;;;;;;;19.33;12.80;;;;;;;;;;5022901;28;20042;-67
2021/07/07 12:46:56;;;;;;;19.98;14.07;;;;;;;;;;5020984;28;20409;-67
2021/07/07 12:49:39;;;;;;;16.40;13.18;;;;;;;;;;5028733;28;20573;-68
2021/07/07 12:52:36;;;;;;;24.08;15.60;;;;;;;;;;5023055;28;20064;-67
2021/07/07 12:55:13;;;;;;;27.92;15.38;;;;;;;;;;5000005;28;20571;-67
2021/07/07 12:57:44;;;;;;;21.67;14.52;;;;;;;;;;5016406;28;20030;-67
2021/07/07 13:00:12;;;;;;;23.60;15.48;;;;;;;;;;5011691;28;20026;-69
2021/07/07 13:02:57;;;;;;;22.30;15.43;;;;;;;;;;5016120;28;20088;-68
2021/07/07 13:05:31;;;;;;;23.15;15.30;;;;;;;;;;5025598;28;20033;-69
2021/07/07 13:07:58;;;;;;;;;;;;;;;;;;5020308;28;20025;-69
2021/07/07 13:10:34;;;;;;;23.17;14.45;;;;;;;;;;5000038;28;19909;-69
2021/07/07 13:13:24;;;;;;;24.42;14.80;;;;;;;;;;5013092;28;20037;-69
2021/07/07 13:16:06;;;;;;;28.25;15.40;;;;;;;;;;5001298;28;20050;-69
2021/07/07 13:18:34;;;;;;;27.17;16.27;;;;;;;;;;5024314;28;20017;-69
2021/07/07 13:21:02;;;;;;;29.88;16.30;;;;;;;;;;5023621;28;20056;-69
2021/07/07 13:23:30;;;;;;;30.17;16.00;;;;;;;;;;5010975;28;20096;-69
2021/07/07 13:26:15;;;;;;;29.88;15.57;;;;;;;;;;5012938;28;20048;-69
2021/07/07 13:28:43;;;;;;;28.52;16.45;;;;;;;;;;5030602;28;20025;-69
2021/07/07 13:31:14;;;;;;;24.00;15.65;;;;;;;;;;5013235;28;20478;-69
2021/07/07 13:33:41;;;;;;;30.98;16.63;;;;;;;;;;5020416;28;20025;-69
2021/07/07 13:36:08;;;;;;;25.80;16.17;;;;;;;;;;5023896;28;20471;-69
2021/07/07 13:38:35;;;;;;;26.80;16.80;;;;;;;;;;5023432;28;20022;-69
2021/07/07 13:41:02;;;;;;;25.55;16.08;;;;;;;;;;5015993;28;20033;-69
2021/07/07 13:43:29;;;;;;;23.88;15.75;;;;;;;;;;5025335;28;20061;-69
2021/07/07 13:45:56;;;;;;;25.42;15.35;;;;;;;;;;5026164;28;20153;-67
2021/07/07 13:48:23;;;;;;;24.48;16.27;;;;;;;;;;5030823;28;20119;-69
2021/07/07 13:50:51;;;;;;;24.00;16.70;;;;;;;;;;5015408;28;20037;-69
2021/07/07 13:53:19;;;;;;;30.23;15.27;;;;;;;;;;5012209;28;21192;-69
2021/07/07 13:55:46;;;;;;;24.33;15.88;;;;;;;;;;5024788;28;20147;-69
2021/07/07 13:58:13;;;;;;;21.73;15.90;;;;;;;;;;5018376;28;20028;-66
2021/07/07 14:00:40;;;;;;;25.58;15.70;;;;;;;;;;5017003;28;20028;-69
2021/07/07 14:03:07;;;;;;;30.63;16.65;;;;;;;;;;5030323;28;20022;-66
2021/07/07 14:05:34;;;;;;;25.30;16.48;;;;;;;;;;5028824;28;20569;-69
2021/07/07 14:08:02;;;;;;;26.63;15.70;;;;;;;;;;5024592;28;20036;-69
2021/07/07 14:10:29;;;;;;;28.90;17.52;;;;;;;;;;5031146;28;20108;-67
2021/07/07 14:12:56;;;;;;;28.00;17.92;;;;;;;;;;5023458;28;20383;-68
2021/07/07 14:15:23;;;;;;;29.38;17.30;;;;;;;;;;5010003;28;20080;-68
2021/07/07 14:17:50;;;;;;;28.70;18.20;;;;;;;;;;5013084;28;20051;-68
2021/07/07 14:20:17;;;;;;;30.88;18.58;;;;;;;;;;5017536;28;20021;-67
2021/07/07 14:22:44;;;;;;;27.30;16.75;;;;;;;;;;5014933;28;20033;-68
2021/07/07 14:25:11;;;;;;;34.20;18.45;;;;;;;;;;5018413;28;20029;-68
2021/07/07 14:27:39;;;;;;;31.00;18.73;;;;;;;;;;5031290;28;20064;-68
2021/07/07 14:30:09;;;;;;;27.70;18.17;;;;;;;;;;5021319;28;20082;-68
2021/07/07 14:32:36;;;;;;;33.10;18.55;;;;;;;;;;5016710;28;20030;-67
2021/07/07 14:35:03;;;;;;;33.85;18.75;;;;;;;;;;5023912;28;20018;-67
2021/07/07 14:37:30;;;;;;;30.52;18.70;;;;;;;;;;5032359;28;20025;-67
2021/07/07 14:39:57;;;;;;;28.48;18.10;;;;;;;;;;5022839;28;20030;-67
2021/07/07 14:42:24;;;;;;;27.55;17.40;;;;;;;;;;5027324;28;20037;-67
2021/07/07 14:44:51;;;;;;;29.98;18.85;;;;;;;;;;5024869;28;20029;-68
2021/07/07 14:47:18;;;;;;;31.50;18.55;;;;;;;;;;5025249;28;20075;-67